METAR AND TAF INFORMATION
METAR FOR GCXO
ADDS - METARS form results

(1535 UTC 23 January 2018)
Data provider http://aviationweather.gov/adds/metars/
 
METAR text: GCXO 231530Z 12008KT 100V170 9999 FEW009 15/12 Q1025 NOSIG
Conditions at: GCXO (TENERIFE/LOS ROD, ES) observed 1530 UTC 23 January 2018
Temperature: 15.0°C (59°F)
Dewpoint: 12.0°C (54°F) [RH = 82%]
Pressure (altimeter): 30.27 inches Hg (1025.0 mb)
Winds: from the ESE (120 degrees) at 9 MPH (8 knots; 4.2 m/s)
Visibility: 6 or more miles (10+ km)
Ceiling: at least 12,000 feet AGL
Clouds: few clouds at 900 feet AGL
Weather: no significant weather observed at this time

METAR text: GCXO 231500Z 12009KT 100V170 9999 FEW009 14/11 Q1025 NOSIG
Conditions at: GCXO (TENERIFE/LOS ROD, ES) observed 1500 UTC 23 January 2018
Temperature: 14.0°C (57°F)
Dewpoint: 11.0°C (52°F) [RH = 82%]
Pressure (altimeter): 30.27 inches Hg (1025.0 mb)
Winds: from the ESE (120 degrees) at 10 MPH (9 knots; 4.7 m/s)
Visibility: 6 or more miles (10+ km)
Ceiling: at least 12,000 feet AGL
Clouds: few clouds at 900 feet AGL
Weather: no significant weather observed at this time

Forecast for: GCXO (TENERIFE/LOS ROD, ES)
Text: TAF GCXO 231400Z 2315/2415 12012KT 9999 SCT010 TX16/2414Z TN10/2406Z
Forecast period: 1500 UTC 23 January 2018 to 1500 UTC 24 January 2018
Forecast type: FROM: standard forecast or significant change
Winds: from the ESE (120 degrees) at 14 MPH (12 knots; 6.2 m/s)
Visibility: 6 or more miles (10+ km)
Clouds: scattered clouds at 1000 feet AGL
Weather: no significant weather forecast for this period
Text: TEMPO 2318/2411 BKN010
Forecast period: 1800 UTC 23 January 2018 to 1100 UTC 24 January 2018
Forecast type: TEMPORARY: The following changes expected for less than half the time period
Ceiling: 1000 feet AGL
Clouds: broken clouds at 1000 feet AGL
Weather: no significant weather forecast for this period
Text: PROB30
Forecast period: 2100 UTC 23 January 2018 to 0800 UTC 24 January 2018
Forecast type: TEMPORARY: The following changes expected for less than half the time period
Visibility: 1.86 miles (2.99 km)
Ceiling: 400 feet AGL
Clouds: broken clouds at 400 feet AGL
Weather: BCFG  (patches of fog)

 AIRPORT MAP

 RUNWAY INFORMATION
Runway 12 Runway length 11155 ft Runway width 148 ft
Runway elevation 2060 ft Runway displaced threshold 0 ft Runway heading 111
Runway 30 Runway length 11155 ft Runway width 148 ft
Runway elevation 2002 ft Runway displaced threshold 0 ft Runway heading 291

 AIRPORT FREQUENCIES
Type APP Name APP Frequency 119.7 MHZ
Type ATIS Name ATIS Frequency 118.575 MHZ
Type GND Name GND Frequency 121.7 MHZ
Type TWR Name TWR Frequency 118.7 MHZ

 AIRPORT NEAR NAVIGATION AIDS
Type VOR-DME Name Tenerife Norte Frequency 117700 KHZ
Type NDB Name Tenerife Norte Frequency 410 KHZ



Powered by Virtual Airlines Manager [v2.6.2]